sensor_id;sensor_type;location;lat;lon;timestamp;P1;durP1;ratioP1;P2;durP2;ratioP2
1076;SDS011;64114;48.726;9.370;2022-11-11T00:02:30;10.90;;;7.83;;
1076;SDS011;64114;48.726;9.370;2022-11-11T00:05:17;14.13;;;7.33;;
1076;SDS011;64114;48.726;9.370;2022-11-11T00:08:06;8.20;;;7.10;;
1076;SDS011;64114;48.726;9.370;2022-11-11T00:10:58;10.80;;;7.07;;
1076;SDS011;64114;48.726;9.370;2022-11-11T00:13:45;7.33;;;6.40;;
1076;SDS011;64114;48.726;9.370;2022-11-11T00:16:32;10.67;;;8.00;;
1076;SDS011;64114;48.726;9.370;2022-11-11T00:19:33;10.07;;;7.37;;
1076;SDS011;64114;48.726;9.370;2022-11-11T00:22:42;9.97;;;7.43;;
1076;SDS011;64114;48.726;9.370;2022-11-11T00:25:51;10.20;;;7.10;;
1076;SDS011;64114;48.726;9.370;2022-11-11T00:28:58;8.03;;;6.10;;
1076;SDS011;64114;48.726;9.370;2022-11-11T00:31:45;11.10;;;6.40;;
1076;SDS011;64114;48.726;9.370;2022-11-11T00:34:45;13.73;;;6.50;;
1076;SDS011;64114;48.726;9.370;2022-11-11T00:37:46;11.57;;;6.30;;
1076;SDS011;64114;48.726;9.370;2022-11-11T00:40:39;9.57;;;6.90;;
1076;SDS011;64114;48.726;9.370;2022-11-11T00:43:27;11.43;;;6.07;;
1076;SDS011;64114;48.726;9.370;2022-11-11T00:46:15;7.20;;;5.93;;
1076;SDS011;64114;48.726;9.370;2022-11-11T00:49:19;10.30;;;6.93;;
1076;SDS011;64114;48.726;9.370;2022-11-11T00:52:23;7.20;;;5.60;;
1076;SDS011;64114;48.726;9.370;2022-11-11T00:55:09;7.20;;;5.80;;
1076;SDS011;64114;48.726;9.370;2022-11-11T00:57:56;8.03;;;5.30;;
1076;SDS011;64114;48.726;9.370;2022-11-11T01:00:45;7.90;;;5.17;;
1076;SDS011;64114;48.726;9.370;2022-11-11T01:03:34;7.07;;;5.70;;
1076;SDS011;64114;48.726;9.370;2022-11-11T01:06:21;9.40;;;6.10;;
1076;SDS011;64114;48.726;9.370;2022-11-11T01:09:07;7.60;;;5.97;;
1076;SDS011;64114;48.726;9.370;2022-11-11T01:11:55;10.53;;;5.53;;
1076;SDS011;64114;48.726;9.370;2022-11-11T01:14:42;6.53;;;5.70;;
1076;SDS011;64114;48.726;9.370;2022-11-11T01:17:30;9.17;;;5.80;;
1076;SDS011;64114;48.726;9.370;2022-11-11T01:20:17;7.43;;;6.63;;
1076;SDS011;64114;48.726;9.370;2022-11-11T01:23:04;12.80;;;6.10;;
1076;SDS011;64114;48.726;9.370;2022-11-11T01:25:51;9.23;;;5.30;;
1076;SDS011;64114;48.726;9.370;2022-11-11T01:28:37;11.43;;;6.13;;
1076;SDS011;64114;48.726;9.370;2022-11-11T01:31:25;5.70;;;5.23;;
1076;SDS011;64114;48.726;9.370;2022-11-11T01:34:13;11.73;;;7.23;;
1076;SDS011;64114;48.726;9.370;2022-11-11T01:36:59;9.77;;;6.50;;
1076;SDS011;64114;48.726;9.370;2022-11-11T01:39:46;8.17;;;5.57;;
1076;SDS011;64114;48.726;9.370;2022-11-11T01:42:44;11.17;;;6.67;;
1076;SDS011;64114;48.726;9.370;2022-11-11T01:45:47;10.97;;;6.50;;
1076;SDS011;64114;48.726;9.370;2022-11-11T01:48:39;9.20;;;6.67;;
1076;SDS011;64114;48.726;9.370;2022-11-11T01:51:51;12.83;;;7.00;;
1076;SDS011;64114;48.726;9.370;2022-11-11T01:54:43;8.77;;;6.30;;
1076;SDS011;64114;48.726;9.370;2022-11-11T01:57:35;9.47;;;7.10;;
1076;SDS011;64114;48.726;9.370;2022-11-11T02:00:26;12.67;;;7.37;;
1076;SDS011;64114;48.726;9.370;2022-11-11T02:03:14;10.03;;;7.13;;
1076;SDS011;64114;48.726;9.370;2022-11-11T02:06:05;10.93;;;6.97;;
1076;SDS011;64114;48.726;9.370;2022-11-11T02:08:52;11.50;;;5.93;;
1076;SDS011;64114;48.726;9.370;2022-11-11T02:11:40;10.17;;;6.83;;
1076;SDS011;64114;48.726;9.370;2022-11-11T02:14:45;10.67;;;7.03;;
1076;SDS011;64114;48.726;9.370;2022-11-11T02:17:36;9.10;;;6.10;;
1076;SDS011;64114;48.726;9.370;2022-11-11T02:20:23;9.40;;;6.63;;
1076;SDS011;64114;48.726;9.370;2022-11-11T02:23:13;9.80;;;6.40;;
1076;SDS011;64114;48.726;9.370;2022-11-11T02:26:06;8.60;;;6.03;;
1076;SDS011;64114;48.726;9.370;2022-11-11T02:28:55;12.13;;;6.80;;
1076;SDS011;64114;48.726;9.370;2022-11-11T02:31:42;11.97;;;7.67;;
1076;SDS011;64114;48.726;9.370;2022-11-11T02:34:29;10.83;;;7.53;;
1076;SDS011;64114;48.726;9.370;2022-11-11T02:37:18;11.53;;;7.03;;
1076;SDS011;64114;48.726;9.370;2022-11-11T02:40:07;9.50;;;6.77;;
1076;SDS011;64114;48.726;9.370;2022-11-11T02:42:58;12.00;;;8.37;;
1076;SDS011;64114;48.726;9.370;2022-11-11T02:45:45;16.50;;;7.07;;
1076;SDS011;64114;48.726;9.370;2022-11-11T02:48:31;9.73;;;6.60;;
1076;SDS011;64114;48.726;9.370;2022-11-11T02:51:18;9.40;;;6.53;;
1076;SDS011;64114;48.726;9.370;2022-11-11T02:54:05;11.20;;;7.70;;
1076;SDS011;64114;48.726;9.370;2022-11-11T02:56:53;15.00;;;7.47;;
1076;SDS011;64114;48.726;9.370;2022-11-11T02:59:57;11.63;;;7.63;;
1076;SDS011;64114;48.726;9.370;2022-11-11T03:02:46;12.33;;;9.30;;
1076;SDS011;64114;48.726;9.370;2022-11-11T03:05:32;9.77;;;7.13;;
1076;SDS011;64114;48.726;9.370;2022-11-11T03:08:20;9.83;;;7.90;;
1076;SDS011;64114;48.726;9.370;2022-11-11T03:11:07;13.13;;;7.80;;
1076;SDS011;64114;48.726;9.370;2022-11-11T03:13:54;14.80;;;10.37;;
1076;SDS011;64114;48.726;9.370;2022-11-11T03:16:41;12.47;;;9.20;;
1076;SDS011;64114;48.726;9.370;2022-11-11T03:19:46;10.10;;;7.27;;
1076;SDS011;64114;48.726;9.370;2022-11-11T03:22:33;8.87;;;6.60;;
1076;SDS011;64114;48.726;9.370;2022-11-11T03:25:39;11.33;;;7.43;;
1076;SDS011;64114;48.726;9.370;2022-11-11T03:28:27;12.57;;;7.87;;
1076;SDS011;64114;48.726;9.370;2022-11-11T03:31:14;9.33;;;6.50;;
1076;SDS011;64114;48.726;9.370;2022-11-11T03:34:02;9.27;;;6.30;;
1076;SDS011;64114;48.726;9.370;2022-11-11T03:37:03;7.63;;;5.80;;
1076;SDS011;64114;48.726;9.370;2022-11-11T03:40:09;7.60;;;6.00;;
1076;SDS011;64114;48.726;9.370;2022-11-11T03:42:55;9.37;;;6.10;;
1076;SDS011;64114;48.726;9.370;2022-11-11T03:45:48;11.40;;;6.77;;
1076;SDS011;64114;48.726;9.370;2022-11-11T03:48:35;11.33;;;5.90;;
1076;SDS011;64114;48.726;9.370;2022-11-11T03:51:22;9.40;;;5.50;;
1076;SDS011;64114;48.726;9.370;2022-11-11T03:54:09;6.60;;;5.60;;
1076;SDS011;64114;48.726;9.370;2022-11-11T03:56:55;7.40;;;5.77;;
1076;SDS011;64114;48.726;9.370;2022-11-11T04:00:03;6.87;;;6.30;;
1076;SDS011;64114;48.726;9.370;2022-11-11T04:03:02;5.50;;;5.20;;
1076;SDS011;64114;48.726;9.370;2022-11-11T04:06:09;5.83;;;5.43;;
1076;SDS011;64114;48.726;9.370;2022-11-11T04:09:15;7.13;;;5.00;;
1076;SDS011;64114;48.726;9.370;2022-11-11T04:12:19;8.57;;;5.87;;
1076;SDS011;64114;48.726;9.370;2022-11-11T04:15:08;7.83;;;6.47;;
1076;SDS011;64114;48.726;9.370;2022-11-11T04:18:12;8.17;;;5.90;;
1076;SDS011;64114;48.726;9.370;2022-11-11T04:20:58;6.50;;;5.53;;
1076;SDS011;64114;48.726;9.370;2022-11-11T04:24:02;7.60;;;5.67;;
1076;SDS011;64114;48.726;9.370;2022-11-11T04:27:12;9.13;;;6.03;;
1076;SDS011;64114;48.726;9.370;2022-11-11T04:29:58;8.87;;;6.40;;
1076;SDS011;64114;48.726;9.370;2022-11-11T04:32:45;8.60;;;6.53;;
1076;SDS011;64114;48.726;9.370;2022-11-11T04:35:32;8.73;;;6.00;;
1076;SDS011;64114;48.726;9.370;2022-11-11T04:38:19;8.20;;;5.50;;
1076;SDS011;64114;48.726;9.370;2022-11-11T04:41:23;14.03;;;6.90;;
1076;SDS011;64114;48.726;9.370;2022-11-11T04:44:31;13.90;;;6.70;;
1076;SDS011;64114;48.726;9.370;2022-11-11T04:47:35;6.60;;;6.13;;
1076;SDS011;64114;48.726;9.370;2022-11-11T04:50:22;7.50;;;5.73;;
1076;SDS011;64114;48.726;9.370;2022-11-11T04:53:11;11.63;;;6.57;;
1076;SDS011;64114;48.726;9.370;2022-11-11T04:55:58;9.20;;;7.40;;
1076;SDS011;64114;48.726;9.370;2022-11-11T04:59:02;11.30;;;7.17;;
1076;SDS011;64114;48.726;9.370;2022-11-11T05:02:06;9.47;;;6.60;;
1076;SDS011;64114;48.726;9.370;2022-11-11T05:05:11;10.23;;;6.70;;
1076;SDS011;64114;48.726;9.370;2022-11-11T05:07:58;10.27;;;6.90;;
1076;SDS011;64114;48.726;9.370;2022-11-11T05:11:04;8.93;;;6.77;;
1076;SDS011;64114;48.726;9.370;2022-11-11T05:13:51;9.93;;;8.10;;
1076;SDS011;64114;48.726;9.370;2022-11-11T05:16:57;9.70;;;6.80;;
1076;SDS011;64114;48.726;9.370;2022-11-11T05:20:03;10.17;;;6.50;;
1076;SDS011;64114;48.726;9.370;2022-11-11T05:23:07;13.30;;;7.20;;
1076;SDS011;64114;48.726;9.370;2022-11-11T05:25:53;11.20;;;7.00;;
1076;SDS011;64114;48.726;9.370;2022-11-11T05:28:39;10.03;;;6.73;;
1076;SDS011;64114;48.726;9.370;2022-11-11T05:31:26;8.80;;;6.97;;
1076;SDS011;64114;48.726;9.370;2022-11-11T05:34:13;9.17;;;6.20;;
1076;SDS011;64114;48.726;9.370;2022-11-11T05:37:02;9.80;;;6.47;;
1076;SDS011;64114;48.726;9.370;2022-11-11T05:39:49;13.17;;;7.33;;
1076;SDS011;64114;48.726;9.370;2022-11-11T05:42:39;8.10;;;6.53;;
1076;SDS011;64114;48.726;9.370;2022-11-11T05:45:33;9.90;;;5.93;;
1076;SDS011;64114;48.726;9.370;2022-11-11T05:48:20;8.77;;;5.80;;
1076;SDS011;64114;48.726;9.370;2022-11-11T05:51:07;7.23;;;6.13;;
1076;SDS011;64114;48.726;9.370;2022-11-11T05:54:13;8.43;;;6.30;;
1076;SDS011;64114;48.726;9.370;2022-11-11T05:57:01;8.67;;;6.67;;
1076;SDS011;64114;48.726;9.370;2022-11-11T05:59:48;7.83;;;6.03;;
1076;SDS011;64114;48.726;9.370;2022-11-11T06:02:35;10.30;;;6.80;;
1076;SDS011;64114;48.726;9.370;2022-11-11T06:05:22;10.17;;;7.13;;
1076;SDS011;64114;48.726;9.370;2022-11-11T06:08:09;7.57;;;5.63;;
1076;SDS011;64114;48.726;9.370;2022-11-11T06:10:58;9.47;;;7.03;;
1076;SDS011;64114;48.726;9.370;2022-11-11T06:13:45;9.43;;;6.73;;
1076;SDS011;64114;48.726;9.370;2022-11-11T06:16:32;8.40;;;6.50;;
1076;SDS011;64114;48.726;9.370;2022-11-11T06:19:19;13.23;;;7.70;;
1076;SDS011;64114;48.726;9.370;2022-11-11T06:22:05;12.43;;;7.50;;
1076;SDS011;64114;48.726;9.370;2022-11-11T06:24:53;10.10;;;6.57;;
1076;SDS011;64114;48.726;9.370;2022-11-11T06:28:01;8.00;;;6.00;;
1076;SDS011;64114;48.726;9.370;2022-11-11T06:30:48;8.63;;;6.57;;
1076;SDS011;64114;48.726;9.370;2022-11-11T06:33:35;11.77;;;8.50;;
1076;SDS011;64114;48.726;9.370;2022-11-11T06:36:23;11.73;;;7.60;;
1076;SDS011;64114;48.726;9.370;2022-11-11T06:39:10;12.93;;;7.60;;
1076;SDS011;64114;48.726;9.370;2022-11-11T06:41:57;11.90;;;8.37;;
1076;SDS011;64114;48.726;9.370;2022-11-11T06:44:46;10.60;;;7.70;;
1076;SDS011;64114;48.726;9.370;2022-11-11T06:47:32;9.80;;;7.30;;
1076;SDS011;64114;48.726;9.370;2022-11-11T06:50:20;11.93;;;6.20;;
1076;SDS011;64114;48.726;9.370;2022-11-11T06:53:08;7.70;;;5.93;;
1076;SDS011;64114;48.726;9.370;2022-11-11T06:55:56;10.63;;;6.30;;
1076;SDS011;64114;48.726;9.370;2022-11-11T06:58:43;9.87;;;6.40;;
1076;SDS011;64114;48.726;9.370;2022-11-11T07:01:32;14.00;;;8.40;;
1076;SDS011;64114;48.726;9.370;2022-11-11T07:04:18;9.50;;;7.37;;
1076;SDS011;64114;48.726;9.370;2022-11-11T07:07:04;15.53;;;6.43;;
1076;SDS011;64114;48.726;9.370;2022-11-11T07:09:51;10.60;;;6.87;;
1076;SDS011;64114;48.726;9.370;2022-11-11T07:12:39;9.10;;;6.20;;
1076;SDS011;64114;48.726;9.370;2022-11-11T07:15:26;10.50;;;6.70;;
1076;SDS011;64114;48.726;9.370;2022-11-11T07:18:15;8.03;;;6.53;;
1076;SDS011;64114;48.726;9.370;2022-11-11T07:21:02;15.00;;;7.30;;
1076;SDS011;64114;48.726;9.370;2022-11-11T07:23:49;7.43;;;6.17;;
1076;SDS011;64114;48.726;9.370;2022-11-11T07:26:36;8.43;;;6.23;;
1076;SDS011;64114;48.726;9.370;2022-11-11T07:29:22;7.53;;;6.00;;
1076;SDS011;64114;48.726;9.370;2022-11-11T07:32:09;11.77;;;7.00;;
1076;SDS011;64114;48.726;9.370;2022-11-11T07:34:57;9.37;;;6.37;;
1076;SDS011;64114;48.726;9.370;2022-11-11T07:37:44;8.33;;;6.63;;
1076;SDS011;64114;48.726;9.370;2022-11-11T07:44:44;7.43;;;6.10;;
1076;SDS011;64114;48.726;9.370;2022-11-11T07:47:33;9.27;;;6.93;;
1076;SDS011;64114;48.726;9.370;2022-11-11T07:50:21;11.40;;;7.13;;
1076;SDS011;64114;48.726;9.370;2022-11-11T07:53:08;16.53;;;8.17;;
1076;SDS011;64114;48.726;9.370;2022-11-11T07:55:55;18.20;;;10.20;;
1076;SDS011;64114;48.726;9.370;2022-11-11T07:58:41;15.67;;;8.50;;
1076;SDS011;64114;48.726;9.370;2022-11-11T08:01:27;11.30;;;7.33;;
1076;SDS011;64114;48.726;9.370;2022-11-11T08:04:14;12.23;;;6.53;;
1076;SDS011;64114;48.726;9.370;2022-11-11T08:07:02;8.70;;;6.60;;
1076;SDS011;64114;48.726;9.370;2022-11-11T08:09:49;7.87;;;6.23;;
1076;SDS011;64114;48.726;9.370;2022-11-11T08:12:36;8.80;;;6.70;;
1076;SDS011;64114;48.726;9.370;2022-11-11T08:15:40;8.60;;;6.77;;
1076;SDS011;64114;48.726;9.370;2022-11-11T08:18:27;9.70;;;7.70;;
1076;SDS011;64114;48.726;9.370;2022-11-11T08:21:14;13.43;;;8.10;;
1076;SDS011;64114;48.726;9.370;2022-11-11T08:24:02;7.53;;;7.13;;
1076;SDS011;64114;48.726;9.370;2022-11-11T08:27:09;11.80;;;7.80;;
1076;SDS011;64114;48.726;9.370;2022-11-11T08:29:55;13.50;;;8.93;;
1076;SDS011;64114;48.726;9.370;2022-11-11T08:32:42;14.20;;;9.83;;
1076;SDS011;64114;48.726;9.370;2022-11-11T08:35:28;11.53;;;7.93;;
1076;SDS011;64114;48.726;9.370;2022-11-11T08:38:16;13.07;;;10.00;;
1076;SDS011;64114;48.726;9.370;2022-11-11T08:41:05;15.47;;;10.37;;
1076;SDS011;64114;48.726;9.370;2022-11-11T08:43:52;16.77;;;10.00;;
1076;SDS011;64114;48.726;9.370;2022-11-11T08:46:40;11.20;;;7.43;;
1076;SDS011;64114;48.726;9.370;2022-11-11T08:49:27;13.60;;;8.80;;
1076;SDS011;64114;48.726;9.370;2022-11-11T08:52:14;12.17;;;6.93;;
1076;SDS011;64114;48.726;9.370;2022-11-11T08:55:03;8.17;;;6.20;;
1076;SDS011;64114;48.726;9.370;2022-11-11T08:57:57;9.93;;;6.37;;
1076;SDS011;64114;48.726;9.370;2022-11-11T09:00:44;9.97;;;6.60;;
1076;SDS011;64114;48.726;9.370;2022-11-11T09:03:31;6.90;;;5.83;;
1076;SDS011;64114;48.726;9.370;2022-11-11T09:06:18;9.10;;;5.77;;
1076;SDS011;64114;48.726;9.370;2022-11-11T09:09:04;7.50;;;6.80;;
1076;SDS011;64114;48.726;9.370;2022-11-11T09:11:51;8.70;;;6.23;;
1076;SDS011;64114;48.726;9.370;2022-11-11T09:14:39;6.90;;;6.50;;
1076;SDS011;64114;48.726;9.370;2022-11-11T09:17:26;6.87;;;6.23;;
1076;SDS011;64114;48.726;9.370;2022-11-11T09:20:12;10.40;;;7.20;;
1076;SDS011;64114;48.726;9.370;2022-11-11T09:23:06;9.07;;;6.70;;
1076;SDS011;64114;48.726;9.370;2022-11-11T09:25:53;8.60;;;6.23;;
1076;SDS011;64114;48.726;9.370;2022-11-11T09:28:42;6.93;;;6.00;;
1076;SDS011;64114;48.726;9.370;2022-11-11T09:31:31;8.40;;;6.80;;
1076;SDS011;64114;48.726;9.370;2022-11-11T09:34:34;7.33;;;6.30;;
1076;SDS011;64114;48.726;9.370;2022-11-11T09:37:20;7.63;;;6.47;;
1076;SDS011;64114;48.726;9.370;2022-11-11T09:40:08;8.03;;;6.23;;
1076;SDS011;64114;48.726;9.370;2022-11-11T09:43:03;6.43;;;5.53;;
1076;SDS011;64114;48.726;9.370;2022-11-11T09:46:00;7.83;;;5.70;;
1076;SDS011;64114;48.726;9.370;2022-11-11T09:49:01;9.60;;;5.70;;
1076;SDS011;64114;48.726;9.370;2022-11-11T09:52:05;11.43;;;6.30;;
1076;SDS011;64114;48.726;9.370;2022-11-11T09:55:00;8.10;;;6.53;;
1076;SDS011;64114;48.726;9.370;2022-11-11T09:57:52;8.87;;;5.23;;
1076;SDS011;64114;48.726;9.370;2022-11-11T10:00:44;7.00;;;6.17;;
1076;SDS011;64114;48.726;9.370;2022-11-11T10:03:33;7.40;;;5.93;;
1076;SDS011;64114;48.726;9.370;2022-11-11T10:06:29;6.17;;;5.87;;
1076;SDS011;64114;48.726;9.370;2022-11-11T10:09:17;11.73;;;6.67;;
1076;SDS011;64114;48.726;9.370;2022-11-11T10:12:09;9.30;;;6.43;;
1076;SDS011;64114;48.726;9.370;2022-11-11T10:14:58;11.57;;;6.93;;
1076;SDS011;64114;48.726;9.370;2022-11-11T10:17:49;9.40;;;7.37;;
1076;SDS011;64114;48.726;9.370;2022-11-11T10:20:47;8.40;;;7.70;;
1076;SDS011;64114;48.726;9.370;2022-11-11T10:23:42;10.70;;;7.27;;
1076;SDS011;64114;48.726;9.370;2022-11-11T10:26:34;8.23;;;7.27;;
1076;SDS011;64114;48.726;9.370;2022-11-11T10:29:24;8.33;;;6.50;;
1076;SDS011;64114;48.726;9.370;2022-11-11T10:32:16;8.27;;;5.90;;
1076;SDS011;64114;48.726;9.370;2022-11-11T10:35:11;6.97;;;5.63;;
1076;SDS011;64114;48.726;9.370;2022-11-11T10:38:05;7.17;;;6.27;;
1076;SDS011;64114;48.726;9.370;2022-11-11T10:41:09;6.37;;;5.67;;
1076;SDS011;64114;48.726;9.370;2022-11-11T10:44:01;6.63;;;5.70;;
1076;SDS011;64114;48.726;9.370;2022-11-11T10:47:05;9.13;;;6.50;;
1076;SDS011;64114;48.726;9.370;2022-11-11T10:50:00;6.70;;;5.50;;
1076;SDS011;64114;48.726;9.370;2022-11-11T10:52:54;9.90;;;5.77;;
1076;SDS011;64114;48.726;9.370;2022-11-11T10:55:49;9.10;;;5.67;;
1076;SDS011;64114;48.726;9.370;2022-11-11T10:58:45;6.60;;;5.77;;
1076;SDS011;64114;48.726;9.370;2022-11-11T11:01:37;8.30;;;6.13;;
1076;SDS011;64114;48.726;9.370;2022-11-11T11:04:28;6.77;;;5.90;;
1076;SDS011;64114;48.726;9.370;2022-11-11T11:07:23;6.60;;;6.20;;
1076;SDS011;64114;48.726;9.370;2022-11-11T11:10:15;8.10;;;6.13;;
1076;SDS011;64114;48.726;9.370;2022-11-11T11:13:06;6.60;;;5.80;;
1076;SDS011;64114;48.726;9.370;2022-11-11T11:16:03;5.90;;;5.60;;
1076;SDS011;64114;48.726;9.370;2022-11-11T11:19:13;7.33;;;6.00;;
1076;SDS011;64114;48.726;9.370;2022-11-11T11:22:02;7.70;;;5.83;;
1076;SDS011;64114;48.726;9.370;2022-11-11T11:24:49;6.47;;;5.57;;
1076;SDS011;64114;48.726;9.370;2022-11-11T11:27:35;6.00;;;5.17;;
1076;SDS011;64114;48.726;9.370;2022-11-11T11:30:23;9.63;;;5.90;;
1076;SDS011;64114;48.726;9.370;2022-11-11T11:33:12;9.00;;;6.63;;
1076;SDS011;64114;48.726;9.370;2022-11-11T11:36:01;6.47;;;6.07;;
1076;SDS011;64114;48.726;9.370;2022-11-11T11:39:01;8.50;;;6.20;;
1076;SDS011;64114;48.726;9.370;2022-11-11T11:41:48;10.60;;;6.73;;
1076;SDS011;64114;48.726;9.370;2022-11-11T11:44:37;9.17;;;6.53;;
1076;SDS011;64114;48.726;9.370;2022-11-11T11:47:28;16.47;;;8.67;;
1076;SDS011;64114;48.726;9.370;2022-11-11T11:50:30;8.70;;;6.53;;
1076;SDS011;64114;48.726;9.370;2022-11-11T11:53:29;9.50;;;6.73;;
1076;SDS011;64114;48.726;9.370;2022-11-11T11:56:27;11.20;;;7.33;;
1076;SDS011;64114;48.726;9.370;2022-11-11T11:59:21;10.73;;;6.87;;
1076;SDS011;64114;48.726;9.370;2022-11-11T12:02:24;6.97;;;6.23;;
1076;SDS011;64114;48.726;9.370;2022-11-11T12:05:29;9.90;;;6.83;;
1076;SDS011;64114;48.726;9.370;2022-11-11T12:08:29;9.87;;;6.90;;
1076;SDS011;64114;48.726;9.370;2022-11-11T12:11:27;7.03;;;5.50;;
1076;SDS011;64114;48.726;9.370;2022-11-11T12:14:26;5.70;;;5.23;;
1076;SDS011;64114;48.726;9.370;2022-11-11T12:17:28;8.23;;;6.37;;
1076;SDS011;64114;48.726;9.370;2022-11-11T12:20:22;6.93;;;5.80;;
1076;SDS011;64114;48.726;9.370;2022-11-11T12:26:36;6.30;;;5.40;;
1076;SDS011;64114;48.726;9.370;2022-11-11T12:29:34;7.40;;;6.07;;
1076;SDS011;64114;48.726;9.370;2022-11-11T12:36:05;10.40;;;6.13;;
1076;SDS011;64114;48.726;9.370;2022-11-11T12:38:57;7.03;;;5.10;;
1076;SDS011;64114;48.726;9.370;2022-11-11T12:41:55;7.20;;;5.00;;
1076;SDS011;64114;48.726;9.370;2022-11-11T12:44:51;6.10;;;5.47;;
1076;SDS011;64114;48.726;9.370;2022-11-11T12:47:47;8.23;;;5.50;;
1076;SDS011;64114;48.726;9.370;2022-11-11T12:50:45;4.60;;;4.30;;
1076;SDS011;64114;48.726;9.370;2022-11-11T12:53:39;6.93;;;5.37;;
1076;SDS011;64114;48.726;9.370;2022-11-11T12:56:40;7.20;;;4.40;;
1076;SDS011;64114;48.726;9.370;2022-11-11T12:59:38;6.47;;;5.53;;
1076;SDS011;64114;48.726;9.370;2022-11-11T13:02:57;6.03;;;4.97;;
1076;SDS011;64114;48.726;9.370;2022-11-11T13:05:56;6.50;;;4.33;;
1076;SDS011;64114;48.726;9.370;2022-11-11T13:09:03;5.00;;;4.70;;
1076;SDS011;64114;48.726;9.370;2022-11-11T13:12:05;7.73;;;4.80;;
1076;SDS011;64114;48.726;9.370;2022-11-11T13:15:03;5.83;;;4.40;;
1076;SDS011;64114;48.726;9.370;2022-11-11T13:17:58;4.23;;;4.00;;
1076;SDS011;64114;48.726;9.370;2022-11-11T13:20:49;5.03;;;3.80;;
1076;SDS011;64114;48.726;9.370;2022-11-11T13:23:40;6.70;;;4.63;;
1076;SDS011;64114;48.726;9.370;2022-11-11T13:26:27;5.33;;;3.70;;
1076;SDS011;64114;48.726;9.370;2022-11-11T13:29:27;5.33;;;4.37;;
1076;SDS011;64114;48.726;9.370;2022-11-11T13:32:30;8.30;;;4.43;;
1076;SDS011;64114;48.726;9.370;2022-11-11T13:35:24;4.83;;;4.53;;
1076;SDS011;64114;48.726;9.370;2022-11-11T13:38:22;4.33;;;4.03;;
1076;SDS011;64114;48.726;9.370;2022-11-11T13:41:12;6.30;;;4.20;;
1076;SDS011;64114;48.726;9.370;2022-11-11T13:44:08;6.90;;;3.70;;
1076;SDS011;64114;48.726;9.370;2022-11-11T13:47:07;4.93;;;3.10;;
1076;SDS011;64114;48.726;9.370;2022-11-11T13:50:04;5.70;;;4.00;;
1076;SDS011;64114;48.726;9.370;2022-11-11T13:52:54;9.00;;;3.50;;
1076;SDS011;64114;48.726;9.370;2022-11-11T13:55:44;3.03;;;2.70;;
1076;SDS011;64114;48.726;9.370;2022-11-11T13:58:33;5.60;;;4.40;;
1076;SDS011;64114;48.726;9.370;2022-11-11T14:01:25;4.13;;;3.10;;
1076;SDS011;64114;48.726;9.370;2022-11-11T14:04:27;3.50;;;2.87;;
1076;SDS011;64114;48.726;9.370;2022-11-11T14:10:52;4.63;;;3.20;;
1076;SDS011;64114;48.726;9.370;2022-11-11T14:13:42;3.60;;;3.43;;
1076;SDS011;64114;48.726;9.370;2022-11-11T14:19:46;5.40;;;3.13;;
1076;SDS011;64114;48.726;9.370;2022-11-11T14:22:32;4.30;;;3.07;;
1076;SDS011;64114;48.726;9.370;2022-11-11T14:25:20;3.07;;;2.53;;
1076;SDS011;64114;48.726;9.370;2022-11-11T14:28:18;3.37;;;3.17;;
1076;SDS011;64114;48.726;9.370;2022-11-11T14:34:38;5.30;;;3.40;;
1076;SDS011;64114;48.726;9.370;2022-11-11T14:44:40;4.43;;;3.27;;
1076;SDS011;64114;48.726;9.370;2022-11-11T14:47:30;5.60;;;4.13;;
1076;SDS011;64114;48.726;9.370;2022-11-11T14:53:33;3.43;;;3.13;;
1076;SDS011;64114;48.726;9.370;2022-11-11T14:56:23;4.13;;;3.90;;
1076;SDS011;64114;48.726;9.370;2022-11-11T14:59:12;4.70;;;3.67;;
1076;SDS011;64114;48.726;9.370;2022-11-11T15:02:03;6.50;;;4.97;;
1076;SDS011;64114;48.726;9.370;2022-11-11T15:05:04;4.37;;;3.13;;
1076;SDS011;64114;48.726;9.370;2022-11-11T15:08:02;7.00;;;3.50;;
1076;SDS011;64114;48.726;9.370;2022-11-11T15:11:05;3.17;;;2.97;;
1076;SDS011;64114;48.726;9.370;2022-11-11T15:14:05;3.43;;;3.07;;
1076;SDS011;64114;48.726;9.370;2022-11-11T15:17:04;3.27;;;2.70;;
1076;SDS011;64114;48.726;9.370;2022-11-11T15:20:11;2.93;;;2.53;;
1076;SDS011;64114;48.726;9.370;2022-11-11T15:23:17;5.30;;;3.40;;
1076;SDS011;64114;48.726;9.370;2022-11-11T15:26:14;3.97;;;3.00;;
1076;SDS011;64114;48.726;9.370;2022-11-11T15:29:12;4.13;;;3.03;;
1076;SDS011;64114;48.726;9.370;2022-11-11T15:32:19;8.70;;;3.30;;
1076;SDS011;64114;48.726;9.370;2022-11-11T15:35:18;3.07;;;2.90;;
1076;SDS011;64114;48.726;9.370;2022-11-11T15:38:15;5.73;;;3.67;;
1076;SDS011;64114;48.726;9.370;2022-11-11T15:41:04;5.37;;;4.27;;
1076;SDS011;64114;48.726;9.370;2022-11-11T15:43:52;6.73;;;3.23;;
1076;SDS011;64114;48.726;9.370;2022-11-11T15:46:40;5.63;;;3.47;;
1076;SDS011;64114;48.726;9.370;2022-11-11T15:49:38;4.30;;;3.40;;
1076;SDS011;64114;48.726;9.370;2022-11-11T15:52:26;7.23;;;2.60;;
1076;SDS011;64114;48.726;9.370;2022-11-11T15:55:20;3.90;;;3.70;;
1076;SDS011;64114;48.726;9.370;2022-11-11T15:58:09;4.17;;;2.97;;
1076;SDS011;64114;48.726;9.370;2022-11-11T16:00:58;5.00;;;3.50;;
1076;SDS011;64114;48.726;9.370;2022-11-11T16:03:48;3.27;;;3.10;;
1076;SDS011;64114;48.726;9.370;2022-11-11T16:06:36;4.13;;;2.70;;
1076;SDS011;64114;48.726;9.370;2022-11-11T16:09:24;5.73;;;3.70;;
1076;SDS011;64114;48.726;9.370;2022-11-11T16:12:16;6.23;;;3.67;;
1076;SDS011;64114;48.726;9.370;2022-11-11T16:15:07;7.63;;;2.97;;
1076;SDS011;64114;48.726;9.370;2022-11-11T16:17:57;4.50;;;3.40;;
1076;SDS011;64114;48.726;9.370;2022-11-11T16:20:47;5.43;;;3.50;;
1076;SDS011;64114;48.726;9.370;2022-11-11T16:23:38;4.50;;;3.00;;
1076;SDS011;64114;48.726;9.370;2022-11-11T16:29:32;3.77;;;3.20;;
1076;SDS011;64114;48.726;9.370;2022-11-11T16:32:31;6.53;;;3.20;;
1076;SDS011;64114;48.726;9.370;2022-11-11T16:35:24;3.27;;;3.10;;
1076;SDS011;64114;48.726;9.370;2022-11-11T16:38:30;5.17;;;3.50;;
1076;SDS011;64114;48.726;9.370;2022-11-11T16:41:24;4.37;;;4.10;;
1076;SDS011;64114;48.726;9.370;2022-11-11T16:44:28;4.23;;;3.90;;
1076;SDS011;64114;48.726;9.370;2022-11-11T16:47:40;5.30;;;4.03;;
1076;SDS011;64114;48.726;9.370;2022-11-11T16:50:30;4.77;;;4.30;;
1076;SDS011;64114;48.726;9.370;2022-11-11T16:53:22;7.00;;;4.23;;
1076;SDS011;64114;48.726;9.370;2022-11-11T16:56:15;5.43;;;4.73;;
1076;SDS011;64114;48.726;9.370;2022-11-11T16:59:09;4.90;;;4.17;;
1076;SDS011;64114;48.726;9.370;2022-11-11T17:02:00;4.40;;;4.13;;
1076;SDS011;64114;48.726;9.370;2022-11-11T17:04:47;5.60;;;4.20;;
1076;SDS011;64114;48.726;9.370;2022-11-11T17:07:36;8.00;;;4.23;;
1076;SDS011;64114;48.726;9.370;2022-11-11T17:10:23;7.53;;;5.10;;
1076;SDS011;64114;48.726;9.370;2022-11-11T17:13:13;7.37;;;5.80;;
1076;SDS011;64114;48.726;9.370;2022-11-11T17:15:59;9.43;;;5.50;;
1076;SDS011;64114;48.726;9.370;2022-11-11T17:18:48;11.63;;;7.37;;
1076;SDS011;64114;48.726;9.370;2022-11-11T17:21:35;7.20;;;5.87;;
1076;SDS011;64114;48.726;9.370;2022-11-11T17:24:22;14.60;;;6.73;;
1076;SDS011;64114;48.726;9.370;2022-11-11T17:27:08;8.67;;;6.00;;
1076;SDS011;64114;48.726;9.370;2022-11-11T17:29:55;9.00;;;5.20;;
1076;SDS011;64114;48.726;9.370;2022-11-11T17:32:41;7.00;;;5.37;;
1076;SDS011;64114;48.726;9.370;2022-11-11T17:35:27;7.70;;;6.40;;
1076;SDS011;64114;48.726;9.370;2022-11-11T17:38:13;9.30;;;6.53;;
1076;SDS011;64114;48.726;9.370;2022-11-11T17:41:01;7.10;;;6.10;;
1076;SDS011;64114;48.726;9.370;2022-11-11T17:43:47;11.07;;;7.70;;
1076;SDS011;64114;48.726;9.370;2022-11-11T17:46:33;8.53;;;6.23;;
1076;SDS011;64114;48.726;9.370;2022-11-11T17:49:19;10.90;;;7.43;;
1076;SDS011;64114;48.726;9.370;2022-11-11T17:52:26;8.40;;;5.80;;
1076;SDS011;64114;48.726;9.370;2022-11-11T17:55:12;6.60;;;5.80;;
1076;SDS011;64114;48.726;9.370;2022-11-11T17:57:59;7.30;;;5.97;;
1076;SDS011;64114;48.726;9.370;2022-11-11T18:00:46;6.40;;;5.80;;
1076;SDS011;64114;48.726;9.370;2022-11-11T18:03:32;9.63;;;6.83;;
1076;SDS011;64114;48.726;9.370;2022-11-11T18:06:19;8.83;;;7.10;;